Time;durP1;ratioP1;P1;durP2;ratioP2;P2;SDS_P1;SDS_P2;PMS_P1;PMS_P2;Temp;Humidity;BMP_temperature;BMP_pressure;BME280_temperature;BME280_humidity;BME280_pressure;Samples;Min_cycle;Max_cycle;Signal;HPM_P1;HPM_P2
2022/05/11 03:27:50;;;;;;;8.88;2.40;;;;;;;15.31;64.03;101079.22;5831412;23;20653;-72
2022/05/11 03:30:16;;;;;;;3.78;2.15;;;;;;;15.26;64.36;101067.81;4841745;29;20045;-75
2022/05/11 03:35:26;;;;;;;4.88;2.20;;;;;;;15.26;64.28;101072.41;4877633;29;20045;-68
2022/05/11 03:37:51;;;;;;;4.93;2.35;;;;;;;15.27;64.70;101071.41;4844540;29;20132;-76
2022/05/11 03:40:16;;;;;;;5.00;2.28;;;;;;;15.27;64.18;101074.16;4851921;29;20044;-68
2022/05/11 03:42:42;;;;;;;3.30;2.28;;;;;;;15.28;64.18;101073.13;4869307;29;20045;-76
2022/05/11 03:45:14;;;;;;;5.38;2.50;;;;;;;15.25;64.72;101063.31;4876200;29;20073;-69
2022/05/11 03:47:40;;;;;;;4.57;2.50;;;;;;;15.25;64.08;101066.06;4867318;29;20088;-74
2022/05/11 03:50:06;;;;;;;3.13;2.15;;;;;;;15.24;65.18;101057.97;4860126;29;20305;-73
2022/05/11 03:52:32;;;;;;;4.82;2.47;;;;;;;15.24;64.74;101060.69;4875443;29;20074;-69
2022/05/11 03:54:57;;;;;;;4.95;2.53;;;;;;;15.21;65.40;101053.63;4850578;29;20119;-74
2022/05/11 03:57:23;;;;;;;4.18;2.33;;;;;;;15.21;64.55;101061.00;4863739;29;20037;-69
2022/05/11 03:59:48;;;;;;;5.95;2.20;;;;;;;15.18;66.39;101061.25;4863842;29;20044;-68
2022/05/11 04:02:13;;;;;;;5.68;2.85;;;;;;;15.17;65.71;101060.38;4875268;29;20477;-69
2022/05/11 04:04:39;;;;;;;4.93;2.35;;;;;;;15.18;66.05;101055.78;4877658;29;20061;-75
2022/05/11 04:07:04;;;;;;;2.65;2.15;;;;;;;15.17;65.94;101062.25;4859286;29;20064;-68
2022/05/11 04:09:30;;;;;;;3.80;2.40;;;;;;;15.15;65.11;101053.28;4876291;29;20033;-68
2022/05/11 04:11:55;;;;;;;4.15;2.00;;;;;;;15.17;66.20;101054.03;4887289;29;20036;-75
2022/05/11 04:14:20;;;;;;;2.97;2.10;;;;;;;15.18;64.61;101050.28;4853928;29;20045;-68
2022/05/11 04:16:47;;;;;;;3.30;2.15;;;;;;;15.14;66.02;101054.31;4856421;29;20042;-68
2022/05/11 04:19:13;;;;;;;4.82;2.60;;;;;;;15.14;66.00;101055.16;4856939;29;20129;-74
2022/05/11 04:21:38;;;;;;;6.00;2.05;;;;;;;15.13;66.14;101049.84;4867071;29;20120;-70
2022/05/11 04:24:04;;;;;;;3.42;2.45;;;;;;;15.10;66.04;101052.84;4865623;29;20056;-76
2022/05/11 04:26:32;;;;;;;5.45;2.55;;;;;;;15.09;66.54;101051.09;4861005;29;20025;-74
2022/05/11 04:28:57;;;;;;;3.30;2.28;;;;;;;15.05;66.67;101047.75;4849334;29;20057;-68
2022/05/11 04:31:23;;;;;;;4.15;2.20;;;;;;;15.05;66.73;101045.88;4854241;29;20045;-69
2022/05/11 04:33:50;;;;;;;3.65;2.30;;;;;;;15.05;66.46;101045.88;4850526;29;20102;-74
2022/05/11 04:36:16;;;;;;;2.92;2.13;;;;;;;15.06;65.40;101046.75;4847522;29;20034;-68
2022/05/11 04:38:41;;;;;;;2.85;2.05;;;;;;;15.08;66.65;101052.13;4848222;29;20040;-69
2022/05/11 04:41:07;;;;;;;3.55;2.05;;;;;;;15.06;66.34;101046.75;4840795;29;20058;-74
2022/05/11 04:43:33;;;;;;;2.55;2.05;;;;;;;15.07;66.57;101050.38;4829225;29;20041;-68
2022/05/11 04:45:58;;;;;;;8.07;2.67;;;;;;;15.03;66.46;101044.31;4844132;29;20048;-74
2022/05/11 04:48:24;;;;;;;4.60;2.35;;;;;;;15.06;66.08;101052.22;4847545;29;20041;-74
2022/05/11 04:50:50;;;;;;;2.63;2.25;;;;;;;15.08;66.33;101047.50;4853781;29;20037;-77
2022/05/11 04:53:16;;;;;;;3.25;2.53;;;;;;;15.07;66.55;101047.66;4844304;29;20401;-70
2022/05/11 04:55:44;;;;;;;4.68;2.53;;;;;;;15.09;66.51;101051.97;4839452;29;20562;-74
2022/05/11 04:58:09;;;;;;;5.28;2.38;;;;;;;15.13;65.92;101045.22;4842470;29;20397;-75
2022/05/11 05:00:35;;;;;;;2.90;2.30;;;;;;;15.13;65.92;101045.22;4851482;29;20034;-75
2022/05/11 05:03:04;;;;;;;4.30;2.70;;;;;;;15.17;65.53;101049.44;4845570;29;20116;-69
2022/05/11 05:05:30;;;;;;;5.10;2.67;;;;;;;15.23;64.87;101051.63;4856553;29;20545;-68
2022/05/11 05:07:55;;;;;;;4.22;2.78;;;;;;;15.29;65.71;101053.84;4859169;29;20045;-74
2022/05/11 05:10:21;;;;;;;3.90;2.35;;;;;;;15.37;65.54;101055.00;4858022;29;20037;-69
2022/05/11 05:12:47;;;;;;;6.35;2.90;;;;;;;15.44;65.41;101059.81;4843878;29;20037;-76
2022/05/11 05:15:14;;;;;;;6.97;2.78;;;;;;;15.47;65.20;101050.44;4833090;29;20041;-68
2022/05/11 05:17:40;;;;;;;4.20;2.80;;;;;;;15.55;65.55;101056.09;4847596;29;20024;-75
2022/05/11 05:20:07;;;;;;;4.60;2.30;;;;;;;15.62;64.54;101051.81;4847481;29;20053;-77
2022/05/11 05:22:33;;;;;;;6.47;2.72;;;;;;;15.69;64.50;101057.63;4854475;29;20545;-68
2022/05/11 05:24:58;;;;;;;7.95;3.08;;;;;;;15.75;64.14;101062.53;4856824;29;20048;-68
2022/05/11 05:27:24;;;;;;;4.47;2.67;;;;;;;15.75;64.07;101066.16;4858861;29;20042;-73
2022/05/11 05:32:38;;;;;;;7.65;3.35;;;;;;;15.63;64.55;101069.13;4851532;29;20097;-69
2022/05/11 05:35:05;;;;;;;5.18;2.70;;;;;;;15.63;64.40;101077.34;4859458;29;20057;-68
2022/05/11 05:37:31;;;;;;;4.65;2.80;;;;;;;15.59;65.17;101070.41;4848605;29;20026;-68
2022/05/11 05:39:56;;;;;;;7.93;3.08;;;;;;;15.60;65.11;101067.53;4855598;29;20069;-69
2022/05/11 05:42:24;;;;;;;5.32;2.83;;;;;;;15.60;65.23;101067.53;4843382;29;20041;-68
2022/05/11 05:44:49;;;;;;;5.30;3.28;;;;;;;15.59;64.32;101068.53;4854042;29;20508;-69
2022/05/11 05:47:18;;;;;;;7.38;3.00;;;;;;;15.59;64.45;101070.41;4858795;29;20042;-68
2022/05/11 05:49:44;;;;;;;5.15;2.70;;;;;;;15.54;65.28;101073.56;4855470;29;20092;-71
2022/05/11 05:52:17;;;;;;;5.80;2.92;;;;;;;15.53;64.33;101075.44;4854073;29;20037;-69
2022/05/11 05:54:42;;;;;;;4.28;2.78;;;;;;;15.55;64.55;101072.56;4850158;29;20108;-76
2022/05/11 05:57:08;;;;;;;4.30;2.38;;;;;;;15.54;65.01;101076.31;4856720;29;20132;-74
2022/05/11 05:59:33;;;;;;;8.75;3.10;;;;;;;15.56;65.20;101075.16;4854163;29;20052;-68
2022/05/11 06:01:59;;;;;;;2.78;2.33;;;;;;;15.57;65.07;101082.38;4856794;29;20044;-74
2022/05/11 06:04:24;;;;;;;4.95;2.70;;;;;;;15.57;64.01;101082.38;4849257;29;20071;-72
2022/05/11 06:06:50;;;;;;;5.30;2.60;;;;;;;15.57;65.44;101086.97;4850818;29;20478;-75
2022/05/11 06:09:15;;;;;;;5.88;2.95;;;;;;;15.53;64.94;101074.56;4856888;29;20051;-68
2022/05/11 06:11:41;;;;;;;3.88;2.50;;;;;;;15.57;63.99;101078.75;4856728;29;20116;-76
2022/05/11 06:14:06;;;;;;;5.68;2.55;;;;;;;15.59;64.34;101073.16;4858109;29;20068;-71
2022/05/11 06:16:32;;;;;;;4.18;2.40;;;;;;;15.61;64.00;101085.69;4838339;29;20150;-74
2022/05/11 06:18:58;;;;;;;5.30;2.25;;;;;;;15.61;63.86;101079.34;4841691;29;20063;-74
2022/05/11 06:21:24;;;;;;;4.10;2.20;;;;;;;15.62;63.41;101072.84;4848960;29;20054;-68
2022/05/11 06:23:50;;;;;;;6.75;2.60;;;;;;;15.65;62.43;101081.72;4857780;29;20445;-67
2022/05/11 06:26:16;;;;;;;3.70;2.15;;;;;;;15.64;62.61;101070.88;4848671;29;20050;-75
2022/05/11 06:28:42;;;;;;;2.90;1.98;;;;;;;15.69;62.92;101069.47;4864425;29;20068;-69
2022/05/11 06:31:09;;;;;;;3.00;1.70;;;;;;;15.69;61.43;101065.84;4842723;29;20037;-75
2022/05/11 06:33:35;;;;;;;3.60;2.10;;;;;;;15.72;61.83;101071.94;4858624;29;20094;-75
2022/05/11 06:36:05;;;;;;;6.45;2.30;;;;;;;15.77;62.46;101071.53;4839623;29;20037;-73
2022/05/11 06:38:31;;;;;;;3.70;2.00;;;;;;;15.85;61.42;101068.94;4851321;29;20374;-74
2022/05/11 06:40:57;;;;;;;4.40;2.08;;;;;;;15.93;61.61;101069.09;4864439;29;20093;-69
2022/05/11 06:43:22;;;;;;;4.95;2.30;;;;;;;16.00;62.46;101056.56;4840757;29;20041;-77
2022/05/11 06:45:48;;;;;;;4.82;2.30;;;;;;;16.06;61.32;101066.97;4833622;29;20045;-69
2022/05/11 06:48:14;;;;;;;7.15;2.47;;;;;;;16.12;60.12;101064.66;4856621;29;20065;-71
2022/05/11 06:50:40;;;;;;;6.15;2.53;;;;;;;16.23;58.97;101064.56;4855748;29;20383;-68
2022/05/11 06:53:11;;;;;;;6.90;2.30;;;;;;;16.41;60.06;101062.81;4860193;29;20132;-68
2022/05/11 07:01:09;;;;;;;6.40;2.20;;;;;;;17.05;57.73;101062.22;4863861;29;20045;-76
2022/05/11 07:03:34;;;;;;;6.55;2.00;;;;;;;17.21;58.06;101050.63;4861084;29;20532;-68
2022/05/11 07:06:00;;;;;;;7.70;2.45;;;;;;;17.50;58.31;101061.53;4857882;29;20029;-76
2022/05/11 07:08:40;;;;;;;4.55;1.95;;;;;;;17.74;57.70;101063.78;4857857;29;20061;-74
2022/05/11 07:13:52;;;;;;;4.30;1.83;;;;;;;17.98;55.03;101071.47;4855809;29;20042;-76
2022/05/11 07:16:18;;;;;;;3.83;2.08;;;;;;;18.10;55.33;101063.88;4850621;29;20039;-73
2022/05/11 07:18:43;;;;;;;4.72;2.03;;;;;;;18.18;54.17;101065.81;4852282;29;20412;-71
2022/05/11 07:21:09;;;;;;;5.68;2.20;;;;;;;18.22;55.07;101067.25;4854097;29;20105;-74
2022/05/11 07:23:34;;;;;;;4.55;1.90;;;;;;;18.20;53.38;101067.41;4850590;29;20037;-68
2022/05/11 07:25:59;;;;;;;6.30;2.17;;;;;;;18.29;53.93;101071.13;4838361;29;20112;-75
2022/05/11 07:28:25;;;;;;;11.38;2.30;;;;;;;18.33;54.03;101053.28;4855409;29;20137;-77
2022/05/11 07:30:51;;;;;;;10.30;2.40;;;;;;;18.44;52.40;101058.53;4841804;29;20045;-69
2022/05/11 07:33:17;;;;;;;4.05;2.10;;;;;;;18.63;53.78;101062.16;4847663;29;20038;-75
2022/05/11 07:35:44;;;;;;;8.02;2.40;;;;;;;18.83;53.98;101072.00;4856010;29;20032;-69
2022/05/11 07:38:15;;;;;;;5.82;2.10;;;;;;;18.94;53.71;101058.00;4854060;29;20504;-69
2022/05/11 07:40:41;;;;;;;7.43;2.20;;;;;;;18.99;51.86;101060.28;4851380;29;20482;-75
2022/05/11 07:43:08;;;;;;;3.58;2.00;;;;;;;18.93;51.15;101064.53;4854450;29;20186;-74
2022/05/11 07:45:34;;;;;;;11.93;2.47;;;;;;;18.89;50.59;101065.03;4853969;29;20041;-76
2022/05/11 07:48:00;;;;;;;4.50;2.20;;;;;;;18.79;51.36;101065.09;4855606;29;20047;-75
2022/05/11 07:50:25;;;;;;;5.97;2.10;;;;;;;18.97;50.83;101063.16;4859157;29;20041;-76
2022/05/11 07:52:51;;;;;;;5.20;2.00;;;;;;;19.38;50.71;101061.56;4853327;29;20056;-67
2022/05/11 07:55:17;;;;;;;5.03;1.95;;;;;;;19.73;50.72;101065.25;4857154;29;20080;-68
2022/05/11 08:00:27;;;;;;;4.38;2.03;;;;;;;20.24;47.84;101070.78;4847948;29;20041;-76
2022/05/11 08:02:53;;;;;;;7.28;2.00;;;;;;;20.15;46.65;101069.91;4853497;29;20383;-75
2022/05/11 08:05:21;;;;;;;6.40;2.13;;;;;;;20.37;47.46;101068.38;4853158;29;20108;-69
2022/05/11 08:07:54;;;;;;;6.63;2.10;;;;;;;;;;4853590;29;20089;-73
2022/05/11 08:10:29;;;;;;;7.70;2.50;;;;;;;20.85;46.85;101062.09;4837802;29;20048;-76
2022/05/11 08:12:55;;;;;;;7.75;2.63;;;;;;;20.67;45.08;101072.44;4856352;29;20056;-76
2022/05/11 08:15:23;;;;;;;7.95;2.25;;;;;;;20.81;46.24;101070.91;4850134;29;20030;-75
2022/05/11 08:17:50;;;;;;;6.43;2.28;;;;;;;21.06;44.98;101067.06;4851871;29;20041;-75
2022/05/11 08:20:19;;;;;;;15.27;2.10;;;;;;;21.03;45.19;101067.44;4854981;29;20038;-67
2022/05/11 08:22:45;;;;;;;6.05;1.90;;;;;;;21.21;44.33;101063.59;4841219;29;20037;-68
2022/05/11 08:25:14;;;;;;;12.30;1.98;;;;;;;21.41;44.17;101067.78;4854445;29;20049;-75
2022/05/11 08:27:40;;;;;;;8.77;2.20;;;;;;;21.64;42.99;101068.75;4851792;29;20421;-74
2022/05/11 08:35:36;;;;;;;5.72;2.00;;;;;;;22.38;43.17;101058.22;4840852;29;20045;-67
2022/05/11 08:38:02;;;;;;;5.80;2.50;;;;;;;22.45;40.55;101049.16;4852871;29;20521;-68
2022/05/11 08:40:39;;;;;;;7.70;2.53;;;;;;;22.62;41.74;101053.53;4851272;29;20045;-67
2022/05/11 08:43:10;;;;;;;9.35;2.15;;;;;;;22.75;41.43;101053.75;4851036;29;20512;-67
2022/05/11 08:45:42;;;;;;;8.00;2.47;;;;;;;22.93;42.34;101056.25;4856172;29;20037;-66
2022/05/11 08:48:10;;;;;;;5.95;1.95;;;;;;;23.09;41.14;101058.88;4854947;29;20041;-75
2022/05/11 08:50:42;;;;;;;4.85;2.22;;;;;;;23.10;41.08;101059.75;4853110;29;20394;-72
2022/05/11 08:53:28;;;;;;;7.80;2.42;;;;;;;23.42;41.77;101053.88;4846644;29;20458;-68
2022/05/11 08:55:56;;;;;;;5.80;2.13;;;;;;;23.82;40.40;101060.00;4859171;29;20080;-75
2022/05/11 08:58:39;;;;;;;9.52;2.40;;;;;;;23.59;39.48;101051.75;4851154;29;20458;-73
2022/05/11 09:01:13;;;;;;;8.77;1.98;;;;;;;23.85;41.11;101062.41;4862352;29;20535;-66
2022/05/11 09:03:41;;;;;;;5.65;2.20;;;;;;;23.73;39.81;101055.59;4856139;29;20033;-74
2022/05/11 09:06:26;;;;;;;5.38;2.00;;;;;;;23.39;41.69;101054.22;4856761;29;20041;-74
2022/05/11 09:08:53;;;;;;;10.02;2.53;;;;;;;22.85;41.46;101050.75;4856059;29;20057;-67
2022/05/11 09:11:26;;;;;;;8.68;2.38;;;;;;;22.94;41.11;101043.22;4860419;29;20043;-76
2022/05/11 09:13:51;;;;;;;7.07;2.50;;;;;;;23.08;40.91;101046.06;4829578;29;20489;-74
2022/05/11 09:16:27;;;;;;;12.10;2.88;;;;;;;22.97;41.94;101043.72;4853864;29;20032;-75
2022/05/11 09:18:52;;;;;;;6.88;2.22;;;;;;;23.24;41.40;101038.63;4852072;29;20505;-70
2022/05/11 09:21:32;;;;;;;11.90;2.42;;;;;;;23.70;41.04;101028.22;4860998;29;20049;-72
2022/05/11 09:24:08;;;;;;;6.57;2.45;;;;;;;23.66;40.13;101029.66;4846316;29;20045;-67
2022/05/11 09:26:38;;;;;;;8.18;2.70;;;;;;;23.76;39.80;101032.16;4847363;29;20042;-67
2022/05/11 09:29:12;;;;;;;6.65;2.63;;;;;;;23.93;42.34;101028.97;4851842;29;20528;-71
2022/05/11 09:31:38;;;;;;;5.35;2.53;;;;;;;24.03;39.48;101022.25;4854582;29;20076;-75
2022/05/11 09:34:06;;;;;;;5.72;2.20;;;;;;;23.91;41.74;101027.44;4849914;29;20033;-73
2022/05/11 09:36:40;;;;;;;11.88;2.70;;;;;;;23.99;41.48;101026.47;4846234;29;20022;-75
2022/05/11 09:39:14;;;;;;;7.75;2.53;;;;;;;24.12;40.54;101021.06;4840784;29;20076;-67
2022/05/11 09:41:42;;;;;;;7.43;2.50;;;;;;;24.03;40.34;101022.25;4848419;29;20045;-76
2022/05/11 09:44:26;;;;;;;7.75;2.08;;;;;;;24.34;41.18;101024.72;4869838;29;20112;-74
2022/05/11 09:46:53;;;;;;;10.48;2.80;;;;;;;24.52;39.44;101021.53;4842409;29;20117;-67
2022/05/11 09:49:19;;;;;;;6.35;2.83;;;;;;;24.63;38.80;101021.03;4867673;29;20029;-67
2022/05/11 09:51:50;;;;;;;11.63;3.63;;;;;;;24.40;39.75;101019.28;4843939;29;20052;-68
2022/05/11 09:54:21;;;;;;;6.95;2.83;;;;;;;24.25;39.60;101012.00;4859267;29;20524;-67
2022/05/11 09:56:49;;;;;;;4.63;2.75;;;;;;;24.27;39.49;101021.03;4852874;29;20037;-74
2022/05/11 09:59:22;;;;;;;7.47;2.80;;;;;;;24.18;40.47;101021.13;4848669;29;20037;-74
2022/05/11 10:01:51;;;;;;;5.95;2.70;;;;;;;24.29;40.39;101018.91;4841111;29;20097;-74
2022/05/11 10:04:20;;;;;;;5.38;2.60;;;;;;;24.51;39.22;101015.13;4848292;29;20194;-74
2022/05/11 10:06:51;;;;;;;5.43;2.67;;;;;;;24.56;40.71;101012.59;4863991;29;20030;-75
2022/05/11 10:09:26;;;;;;;9.52;2.92;;;;;;;24.55;39.88;101021.16;4841201;29;20042;-74
2022/05/11 10:11:51;;;;;;;5.78;2.63;;;;;;;24.76;39.19;101015.59;4860128;29;20041;-73
2022/05/11 10:23:11;;;;;;;7.28;2.72;;;;;;;24.83;38.46;101016.50;4850905;29;20040;-74
2022/05/11 10:25:42;;;;;;;6.78;2.60;;;;;;;24.93;38.91;101005.00;4846485;29;20049;-72
2022/05/11 10:28:37;;;;;;;6.37;2.87;;;;;;;25.32;38.87;101006.41;4845984;29;20049;-73
2022/05/11 10:31:22;;;;;;;8.32;3.15;;;;;;;25.67;37.55;101007.25;4845574;29;20431;-68
2022/05/11 10:34:16;;;;;;;7.45;3.00;;;;;;;25.42;37.88;100998.56;4842621;29;20390;-67
2022/05/11 10:36:52;;;;;;;7.65;3.00;;;;;;;25.52;37.98;100995.41;4851822;29;20092;-74
2022/05/11 10:39:37;;;;;;;6.18;2.90;;;;;;;25.62;36.90;100993.94;4846992;29;20041;-74
2022/05/11 10:42:10;;;;;;;7.30;3.28;;;;;;;25.71;37.77;100983.50;4847044;29;20042;-75
2022/05/11 10:44:52;;;;;;;9.30;2.78;;;;;;;25.85;36.71;100988.09;4861735;29;20040;-68
2022/05/11 10:47:52;;;;;;;10.45;2.65;;;;;;;25.80;38.02;100987.84;4840562;29;20034;-73
2022/05/11 10:50:25;;;;;;;8.85;3.55;;;;;;;25.78;37.55;100980.75;4801938;29;20074;-75
2022/05/11 10:53:03;;;;;;;6.10;3.10;;;;;;;25.85;37.17;100973.28;4838105;29;20153;-67
2022/05/11 10:55:48;;;;;;;5.95;2.45;;;;;;;26.05;37.49;100974.22;4853038;29;20041;-74
2022/05/11 10:58:41;;;;;;;6.50;2.58;;;;;;;26.25;37.23;100971.47;4846518;29;20480;-69
2022/05/11 11:01:14;;;;;;;7.28;3.40;;;;;;;26.29;37.34;100972.78;4841980;29;20456;-68
2022/05/11 11:04:10;;;;;;;13.45;3.17;;;;;;;26.16;37.65;100975.53;4842416;29;20058;-73
2022/05/11 11:07:14;;;;;;;7.60;3.15;;;;;;;26.32;38.10;100979.88;4847105;29;20106;-67
2022/05/11 11:10:23;;;;;;;4.85;2.92;;;;;;;26.31;37.12;100969.78;4843394;29;20026;-68
2022/05/11 11:13:07;;;;;;;5.82;2.55;;;;;;;26.23;38.78;100962.47;4824105;29;20136;-74
2022/05/11 11:15:37;;;;;;;5.28;2.90;;;;;;;26.49;38.16;100967.28;4840120;29;20040;-67
2022/05/11 11:18:04;;;;;;;6.22;3.08;;;;;;;26.54;37.49;100961.91;4849007;29;20056;-67
2022/05/11 11:20:36;;;;;;;5.85;2.88;;;;;;;26.73;36.86;100968.56;4839882;29;20045;-67
2022/05/11 11:23:06;;;;;;;4.55;3.08;;;;;;;26.83;36.66;100946.66;4842358;29;20034;-67
2022/05/11 11:25:46;;;;;;;8.48;3.17;;;;;;;26.85;36.49;100946.44;4846155;29;20061;-75
2022/05/11 11:28:14;;;;;;;12.02;2.78;;;;;;;26.81;35.46;100954.38;4845573;29;20041;-66
2022/05/11 11:30:42;;;;;;;6.65;2.53;;;;;;;26.93;36.41;100951.81;4840299;29;20042;-76
2022/05/11 11:33:16;;;;;;;8.43;2.70;;;;;;;26.82;34.36;100944.09;4839590;29;20491;-75
2022/05/11 11:35:53;;;;;;;11.18;2.90;;;;;;;26.73;36.14;100953.75;4853139;29;20056;-75
2022/05/11 11:38:25;;;;;;;8.27;3.28;;;;;;;26.69;35.48;100954.19;4844224;29;20045;-67
2022/05/11 11:41:14;;;;;;;7.20;2.65;;;;;;;26.99;37.55;100941.69;4851015;29;20529;-67
2022/05/11 11:43:50;;;;;;;9.50;2.55;;;;;;;27.17;35.44;100933.53;4851514;29;20061;-76
2022/05/11 11:46:40;;;;;;;11.20;2.88;;;;;;;27.24;35.86;100927.97;4849820;29;20037;-67
2022/05/11 11:49:19;;;;;;;5.80;2.60;;;;;;;27.23;34.13;100935.44;4844581;29;20616;-75
2022/05/11 11:51:51;;;;;;;6.60;2.65;;;;;;;27.17;34.41;100931.59;4864180;29;20065;-75
2022/05/11 11:54:38;;;;;;;7.88;2.70;;;;;;;27.34;35.43;100934.78;4839560;29;20092;-76
2022/05/11 11:57:03;;;;;;;5.18;2.53;;;;;;;27.55;33.12;100936.44;4848696;29;20870;-75
2022/05/11 11:59:28;;;;;;;5.80;2.70;;;;;;;27.30;32.88;100918.69;4855470;29;20041;-73
2022/05/11 12:02:05;;;;;;;5.13;2.47;;;;;;;27.21;33.07;100929.25;4852781;29;20048;-74
2022/05/11 12:04:35;;;;;;;8.18;2.50;;;;;;;27.01;34.47;100923.66;4839354;29;20417;-67
2022/05/11 12:16:02;;;;;;;7.82;2.40;;;;;;;27.25;35.17;100908.16;4836436;29;20061;-75
2022/05/11 12:18:31;;;;;;;7.82;2.30;;;;;;;27.20;32.00;100907.97;4861789;29;20044;-67
2022/05/11 12:20:57;;;;;;;9.00;2.45;;;;;;;27.08;32.19;100898.50;4861788;29;20029;-74
2022/05/11 12:23:31;;;;;;;5.53;2.38;;;;;;;27.15;35.04;100908.63;4870996;29;20040;-74
2022/05/11 12:26:10;;;;;;;9.43;2.45;;;;;;;27.36;32.80;100892.66;4847516;29;20052;-73
2022/05/11 12:28:44;;;;;;;5.78;2.20;;;;;;;27.54;34.26;100903.97;4861313;29;20076;-67
2022/05/11 12:31:25;;;;;;;7.47;2.47;;;;;;;27.61;33.55;100896.44;4873007;29;20511;-75
2022/05/11 12:33:55;;;;;;;10.37;2.47;;;;;;;27.49;30.86;100883.38;4863417;29;20499;-67
2022/05/11 12:36:34;;;;;;;4.75;2.22;;;;;;;27.56;33.76;100889.78;4863675;29;20298;-67
2022/05/11 12:39:01;;;;;;;11.52;3.03;;;;;;;27.65;32.78;100886.53;4867322;29;20068;-76
2022/05/11 12:41:27;;;;;;;4.63;2.15;;;;;;;27.81;33.71;100893.56;4844176;29;20053;-74
2022/05/11 12:44:12;;;;;;;8.13;2.25;;;;;;;27.82;33.39;100891.63;4869541;29;20037;-75
2022/05/11 12:46:41;;;;;;;6.72;2.33;;;;;;;27.56;31.66;100881.38;4857743;29;20100;-68
2022/05/11 12:49:13;;;;;;;8.50;2.13;;;;;;;27.51;32.97;100879.25;4862276;29;20480;-68
2022/05/11 12:51:49;;;;;;;12.95;2.25;;;;;;;27.60;32.80;100882.66;4844250;29;20083;-66
2022/05/11 12:54:21;;;;;;;7.20;2.38;;;;;;;27.63;32.29;100882.22;4845557;29;20042;-68
2022/05/11 12:56:58;;;;;;;7.65;2.20;;;;;;;27.58;32.13;100890.41;4844946;29;20457;-69
2022/05/11 12:59:25;;;;;;;6.35;2.15;;;;;;;27.36;32.23;100881.47;4860271;29;20488;-67
2022/05/11 13:01:51;;;;;;;6.88;2.08;;;;;;;27.20;33.86;100878.09;4847794;29;20743;-68
2022/05/11 13:04:23;;;;;;;8.50;2.83;;;;;;;27.07;33.87;100874.44;4852433;29;20033;-73
2022/05/11 13:06:52;;;;;;;8.30;2.25;;;;;;;27.28;34.28;100879.81;4845211;29;20136;-74
2022/05/11 13:09:36;;;;;;;6.30;2.50;;;;;;;27.43;33.28;100874.78;4845120;29;20037;-75
2022/05/11 13:12:02;;;;;;;4.82;2.33;;;;;;;27.62;33.26;100883.31;4848627;29;20043;-73
2022/05/11 13:14:36;;;;;;;9.75;2.22;;;;;;;27.48;32.15;100874.13;4851621;29;20556;-73
2022/05/11 13:17:06;;;;;;;6.47;2.50;;;;;;;27.20;33.31;100875.31;4857690;29;20045;-73
2022/05/11 13:19:37;;;;;;;7.90;2.53;;;;;;;27.16;33.52;100882.41;4843703;29;20037;-76
2022/05/11 13:22:05;;;;;;;4.38;2.33;;;;;;;27.06;35.23;100868.00;4864779;29;20088;-67
2022/05/11 13:24:48;;;;;;;7.68;2.20;;;;;;;27.31;33.92;100862.56;4844218;29;20037;-67
2022/05/11 13:27:28;;;;;;;5.82;2.15;;;;;;;27.39;33.42;100858.69;4841770;29;20075;-70
2022/05/11 13:30:14;;;;;;;5.78;2.40;;;;;;;27.19;33.50;100864.38;4850689;29;20060;-69
2022/05/11 13:32:45;;;;;;;4.82;2.25;;;;;;;27.05;33.88;100860.72;4859789;29;20116;-73
2022/05/11 13:35:22;;;;;;;4.05;2.35;;;;;;;27.21;34.84;100859.41;4868744;29;20101;-75
2022/05/11 13:38:09;;;;;;;8.85;2.30;;;;;;;27.16;33.82;100860.06;4842358;29;20462;-67
2022/05/11 13:40:54;;;;;;;7.80;2.60;;;;;;;27.20;33.75;100860.47;4841623;29;20042;-68
2022/05/11 13:43:31;;;;;;;4.93;1.92;;;;;;;27.09;34.52;100852.75;4837475;29;20045;-76
2022/05/11 13:46:01;;;;;;;7.68;2.50;;;;;;;26.99;33.97;100852.34;4865195;29;20109;-76
2022/05/11 13:48:37;;;;;;;5.93;2.25;;;;;;;27.12;32.73;100864.38;4843867;29;20033;-74
2022/05/11 13:51:09;;;;;;;5.70;2.00;;;;;;;27.31;33.13;100858.94;4844831;29;20087;-67
2022/05/11 13:53:35;;;;;;;7.75;2.20;;;;;;;27.18;31.90;100857.88;4824908;29;20333;-74
2022/05/11 13:56:14;;;;;;;6.13;2.58;;;;;;;27.13;34.00;100851.25;4841552;29;20049;-67
2022/05/11 13:58:48;;;;;;;8.15;2.33;;;;;;;27.31;33.99;100857.00;4848200;29;20037;-72
2022/05/11 14:01:20;;;;;;;8.98;2.38;;;;;;;27.50;33.88;100854.34;4859076;29;20041;-70
2022/05/11 14:03:56;;;;;;;12.25;2.88;;;;;;;27.10;32.47;100848.91;4853962;29;20030;-74
2022/05/11 14:06:29;;;;;;;6.65;2.08;;;;;;;26.66;34.28;100858.84;4850691;29;20101;-67
2022/05/11 14:08:55;;;;;;;11.68;2.75;;;;;;;26.45;35.58;100852.44;4856370;29;20061;-68
2022/05/11 14:11:22;;;;;;;4.28;2.25;;;;;;;26.62;36.05;100844.47;4856909;29;20059;-74
2022/05/11 14:13:48;;;;;;;8.82;2.38;;;;;;;26.54;34.81;100849.44;4853995;29;20494;-75
2022/05/11 14:16:19;;;;;;;7.03;2.55;;;;;;;26.27;35.23;100845.75;4839121;29;20098;-71
2022/05/11 14:18:47;;;;;;;8.32;2.70;;;;;;;26.50;34.27;100850.94;4853167;29;20541;-67
2022/05/11 14:21:13;;;;;;;5.40;2.20;;;;;;;26.37;35.13;100838.66;4854185;29;20037;-75
2022/05/11 14:23:38;;;;;;;4.28;2.47;;;;;;;26.32;35.15;100840.38;4860344;29;20409;-67
2022/05/11 14:26:04;;;;;;;5.80;2.70;;;;;;;26.39;35.72;100833.75;4850149;29;20022;-67
2022/05/11 14:28:30;;;;;;;5.53;2.50;;;;;;;26.51;35.89;100828.38;4838028;29;20468;-75
2022/05/11 14:30:55;;;;;;;9.73;2.67;;;;;;;26.59;35.01;100827.31;4853290;29;20526;-75
2022/05/11 14:33:22;;;;;;;7.95;2.47;;;;;;;26.67;35.86;100829.84;4853445;29;20037;-72
2022/05/11 14:35:48;;;;;;;7.90;2.55;;;;;;;26.86;36.70;100820.59;4852888;29;20485;-73
2022/05/11 14:38:15;;;;;;;6.95;2.58;;;;;;;26.86;34.65;100822.50;4855732;29;20033;-71
2022/05/11 14:40:40;;;;;;;7.00;2.55;;;;;;;26.62;33.90;100824.06;4862654;29;20401;-73
2022/05/11 14:43:06;;;;;;;8.65;2.40;;;;;;;26.25;35.55;100820.00;4855181;29;20044;-76
2022/05/11 14:45:35;;;;;;;5.07;2.03;;;;;;;26.25;36.80;100825.56;4855910;29;20033;-75
2022/05/11 14:48:03;;;;;;;7.15;2.28;;;;;;;26.23;35.49;100809.06;4864142;29;20045;-74
2022/05/11 14:50:28;;;;;;;7.25;2.60;;;;;;;26.39;35.54;100816.13;4856502;29;20049;-67
2022/05/11 14:52:56;;;;;;;6.03;2.47;;;;;;;26.30;34.55;100807.13;4856788;29;20052;-67
2022/05/11 14:55:22;;;;;;;5.88;2.30;;;;;;;25.94;35.77;100802.81;4857712;29;20052;-75
2022/05/11 15:03:17;;;;;;;6.38;1.80;;;;;;;25.78;35.61;100805.16;4841240;29;20063;-75
2022/05/11 15:05:43;;;;;;;6.68;2.03;;;;;;;25.79;36.47;100804.97;4859197;29;20036;-68
2022/05/11 15:08:09;;;;;;;8.15;2.25;;;;;;;25.76;35.31;100799.81;4831366;29;20045;-67
2022/05/11 15:10:34;;;;;;;10.18;2.08;;;;;;;25.75;36.23;100800.00;4829819;29;20038;-68
2022/05/11 15:15:46;;;;;;;9.63;2.80;;;;;;;25.88;35.39;100786.06;4846746;29;20049;-69
2022/05/11 15:18:13;;;;;;;8.27;2.17;;;;;;;25.81;36.27;100794.44;4848631;29;20037;-72
2022/05/11 15:20:41;;;;;;;8.68;2.13;;;;;;;25.90;36.78;100782.03;4855488;29;20054;-68
2022/05/11 15:23:07;;;;;;;7.03;2.10;;;;;;;26.04;36.83;100790.41;4846621;29;20037;-75
2022/05/11 15:25:33;;;;;;;5.53;2.30;;;;;;;26.09;34.62;100788.66;4853130;29;20124;-76
2022/05/11 15:27:58;;;;;;;7.10;2.63;;;;;;;26.03;34.31;100778.38;4853042;29;20056;-74
2022/05/11 15:30:25;;;;;;;6.97;2.00;;;;;;;25.79;35.58;100777.09;4840395;29;20056;-68
2022/05/11 15:32:52;;;;;;;10.05;2.58;;;;;;;25.63;36.00;100783.88;4863608;29;20037;-68
2022/05/11 15:35:19;;;;;;;4.50;2.08;;;;;;;25.65;36.91;100787.31;4858369;29;20375;-67
2022/05/11 15:37:46;;;;;;;6.80;2.00;;;;;;;25.79;35.30;100784.59;4856542;29;20478;-75
2022/05/11 15:40:12;;;;;;;6.75;2.15;;;;;;;25.54;36.14;100785.13;4848316;29;20050;-67
2022/05/11 15:42:39;;;;;;;5.85;2.20;;;;;;;25.40;37.12;100778.69;4858176;29;20045;-73
2022/05/11 15:45:05;;;;;;;7.63;2.55;;;;;;;25.06;37.01;100784.31;4837635;29;20721;-66
2022/05/11 15:47:33;;;;;;;10.07;2.40;;;;;;;24.87;37.18;100775.66;4852590;29;20557;-68
2022/05/11 15:49:59;;;;;;;9.07;2.25;;;;;;;24.85;37.60;100788.06;4850940;29;20046;-68
2022/05/11 15:52:25;;;;;;;5.18;2.10;;;;;;;24.98;39.16;100777.00;4854935;29;20029;-69